Bertrand, Nebraska
Current Conditions -  °F | °C
As of 7:35 AM on Friday 28 Nov 2014 (Local Time) from KHDE Reporting Station
Clear Clear  
Wind Chill: 29°   Ceiling: Unl
Heat Index: 35°   Visibility: 10mi
Dew Point: 25°   Wind: 7mph
Humidity: 67%   Direction: 240°WSW
Pressure: 29.85"   Gusts: NA
Location:  40.53°N, 99.63°W
Report Text: KHDE 281335Z AUTO 24006KT 10SM CLR 02/M04 A2985 RMK AO2 T00161039
Loading
Personal Weather Stations






























Interactive Weather Map New forecast layout! Learn more

10-Day Weather Forecast

Advertisements
Track Severe Weather on mobile